Time;durP1;ratioP1;P1;durP2;ratioP2;P2;SDS_P1;SDS_P2;PMS_P1;PMS_P2;Temp;Humidity;BMP_temperature;BMP_pressure;BME280_temperature;BME280_humidity;BME280_pressure;Samples;Min_cycle;Max_cycle;Signal;HPM_P1;HPM_P2
2023/12/01 00:01:12;;;;;;;12.63;5.32;;;;;;;;;;5008858;28;20038;-47
2023/12/01 00:03:37;;;;;;;18.83;5.40;;;;;;;;;;5009209;28;20061;-45
2023/12/01 00:06:03;;;;;;;12.77;5.50;;;;;;;;;;4997529;28;20042;-45
2023/12/01 00:08:28;;;;;;;16.88;5.80;;;;;;;;;;4994489;28;20033;-48
2023/12/01 00:10:54;;;;;;;10.23;4.75;;;;;;;;;;4991453;28;20563;-48
2023/12/01 00:13:19;;;;;;;12.68;5.97;;;;;;;;;;4983154;28;20389;-44
2023/12/01 00:15:45;;;;;;;18.88;5.90;;;;;;;;;;4994929;28;20049;-41
2023/12/01 00:18:10;;;;;;;14.15;5.00;;;;;;;;;;4996235;28;20164;-42
2023/12/01 00:20:35;;;;;;;19.45;4.97;;;;;;;;;;4979012;28;20038;-45
2023/12/01 00:23:01;;;;;;;16.02;5.38;;;;;;;;;;4995028;28;20041;-45
2023/12/01 00:25:26;;;;;;;14.45;5.93;;;;;;;;;;4995069;28;20064;-42
2023/12/01 00:27:51;;;;;;;14.15;5.40;;;;;;;;;;4994311;28;20070;-42
2023/12/01 00:30:17;;;;;;;15.43;5.93;;;;;;;;;;4988222;28;20042;-48
2023/12/01 00:32:42;;;;;;;19.98;8.00;;;;;;;;;;4993822;28;20034;-42
2023/12/01 00:35:08;;;;;;;16.75;6.97;;;;;;;;;;4992726;28;20039;-45
2023/12/01 00:37:33;;;;;;;19.80;5.75;;;;;;;;;;4990056;28;20030;-45
2023/12/01 00:39:59;;;;;;;19.17;7.28;;;;;;;;;;4991666;28;20074;-46
2023/12/01 00:42:25;;;;;;;18.52;5.68;;;;;;;;;;4989621;28;20042;-43
2023/12/01 00:44:51;;;;;;;20.23;6.57;;;;;;;;;;4992532;28;20029;-47
2023/12/01 00:47:16;;;;;;;23.27;7.82;;;;;;;;;;4992885;28;20038;-46
2023/12/01 00:49:41;;;;;;;19.73;7.80;;;;;;;;;;4995779;28;20109;-44
2023/12/01 00:52:07;;;;;;;19.27;7.45;;;;;;;;;;4992277;28;20035;-45
2023/12/01 00:54:32;;;;;;;19.48;6.47;;;;;;;;;;4993372;28;20830;-43
2023/12/01 00:56:58;;;;;;;16.65;5.30;;;;;;;;;;4994704;28;20098;-47
2023/12/01 00:59:24;;;;;;;17.38;7.20;;;;;;;;;;4986017;28;20034;-42
2023/12/01 01:01:49;;;;;;;22.85;7.43;;;;;;;;;;4982811;28;20042;-48
2023/12/01 01:04:15;;;;;;;22.88;8.95;;;;;;;;;;4990049;28;20026;-50
2023/12/01 01:06:40;;;;;;;21.63;8.27;;;;;;;;;;4997752;28;20069;-47
2023/12/01 01:09:06;;;;;;;24.50;9.35;;;;;;;;;;4997543;28;20392;-43
2023/12/01 01:11:31;;;;;;;22.98;6.80;;;;;;;;;;4991596;28;20493;-45
2023/12/01 01:13:58;;;;;;;17.55;5.85;;;;;;;;;;4999682;28;20026;-45
2023/12/01 01:16:24;;;;;;;16.55;6.22;;;;;;;;;;5004997;28;20103;-46
2023/12/01 01:18:49;;;;;;;22.30;6.65;;;;;;;;;;5014000;28;20026;-44
2023/12/01 01:21:14;;;;;;;22.10;7.35;;;;;;;;;;5017365;28;20053;-46
2023/12/01 01:23:40;;;;;;;26.10;9.00;;;;;;;;;;5007309;28;20388;-46
2023/12/01 01:26:07;;;;;;;19.73;8.90;;;;;;;;;;5016754;28;20508;-49
2023/12/01 01:28:32;;;;;;;21.30;6.88;;;;;;;;;;5011415;28;20022;-44
2023/12/01 01:30:57;;;;;;;21.23;6.78;;;;;;;;;;4994025;28;20497;-45
2023/12/01 01:33:23;;;;;;;27.65;8.23;;;;;;;;;;5010657;28;20040;-47
2023/12/01 01:35:48;;;;;;;22.45;7.30;;;;;;;;;;5014879;28;20512;-46
2023/12/01 01:38:14;;;;;;;34.47;9.18;;;;;;;;;;5012972;28;20030;-45
2023/12/01 01:40:39;;;;;;;18.15;5.40;;;;;;;;;;5018423;28;20133;-45
2023/12/01 01:43:04;;;;;;;23.05;6.53;;;;;;;;;;5011088;28;20396;-46
2023/12/01 01:45:30;;;;;;;19.45;6.18;;;;;;;;;;5015176;28;20045;-46
2023/12/01 01:47:55;;;;;;;22.63;6.95;;;;;;;;;;5019294;28;20030;-46
2023/12/01 01:50:22;;;;;;;23.23;6.38;;;;;;;;;;5008826;28;20034;-48
2023/12/01 01:52:49;;;;;;;18.17;7.45;;;;;;;;;;5012383;28;20034;-50
2023/12/01 01:55:14;;;;;;;24.95;6.72;;;;;;;;;;5013500;28;20041;-50
2023/12/01 01:57:44;;;;;;;14.90;5.32;;;;;;;;;;5010080;28;20022;-46
2023/12/01 02:00:12;;;;;;;23.77;9.32;;;;;;;;;;5018275;28;20038;-44
2023/12/01 02:02:38;;;;;;;19.05;6.38;;;;;;;;;;5006830;28;20064;-46
2023/12/01 02:05:12;;;;;;;19.05;6.32;;;;;;;;;;5001632;28;20034;-45
2023/12/01 02:07:38;;;;;;;16.95;7.07;;;;;;;;;;5004082;28;20227;-46
2023/12/01 02:10:04;;;;;;;14.02;5.85;;;;;;;;;;5011407;28;20069;-48
2023/12/01 02:12:30;;;;;;;18.85;6.30;;;;;;;;;;5013283;28;20057;-46
2023/12/01 02:14:55;;;;;;;17.27;5.68;;;;;;;;;;5014976;28;20042;-46
2023/12/01 02:17:20;;;;;;;16.98;5.15;;;;;;;;;;5016391;28;20080;-46
2023/12/01 02:19:46;;;;;;;16.48;7.20;;;;;;;;;;5015810;28;20033;-44
2023/12/01 02:22:11;;;;;;;17.55;6.10;;;;;;;;;;5004085;28;20027;-46
2023/12/01 02:24:36;;;;;;;15.27;5.75;;;;;;;;;;5010492;28;20030;-43
2023/12/01 02:27:02;;;;;;;16.98;6.85;;;;;;;;;;5003898;28;20406;-43
2023/12/01 02:29:27;;;;;;;17.58;5.22;;;;;;;;;;5006977;28;20037;-44
2023/12/01 02:31:52;;;;;;;12.57;6.45;;;;;;;;;;5004173;28;20050;-46
2023/12/01 02:34:21;;;;;;;11.77;5.30;;;;;;;;;;5016703;28;20041;-48
2023/12/01 02:36:46;;;;;;;15.02;5.95;;;;;;;;;;5005572;28;20097;-44
2023/12/01 02:39:13;;;;;;;20.50;7.00;;;;;;;;;;5016332;28;20038;-44
2023/12/01 02:41:39;;;;;;;16.02;6.30;;;;;;;;;;5001144;28;20516;-44
2023/12/01 02:44:04;;;;;;;15.38;5.88;;;;;;;;;;4993148;28;20025;-45
2023/12/01 02:46:30;;;;;;;14.73;4.65;;;;;;;;;;5003703;28;20030;-46
2023/12/01 02:48:55;;;;;;;16.38;6.78;;;;;;;;;;5012689;28;20538;-44
2023/12/01 02:51:21;;;;;;;15.43;5.22;;;;;;;;;;5015562;28;20035;-48
2023/12/01 02:53:46;;;;;;;14.20;5.03;;;;;;;;;;4996587;28;20026;-46
2023/12/01 02:56:11;;;;;;;18.55;5.57;;;;;;;;;;5003500;28;20049;-47
2023/12/01 02:58:37;;;;;;;12.30;4.65;;;;;;;;;;5001492;28;20473;-44
2023/12/01 03:01:03;;;;;;;7.88;5.05;;;;;;;;;;5008818;28;20042;-45
2023/12/01 03:03:28;;;;;;;12.93;3.95;;;;;;;;;;5017053;28;20028;-47
2023/12/01 03:05:54;;;;;;;14.18;5.32;;;;;;;;;;5016095;28;20479;-44
2023/12/01 03:08:19;;;;;;;11.63;4.40;;;;;;;;;;5001047;28;20578;-45
2023/12/01 03:10:44;;;;;;;12.52;4.60;;;;;;;;;;5005242;28;20034;-46
2023/12/01 03:13:10;;;;;;;18.90;5.35;;;;;;;;;;5004116;28;20030;-48
2023/12/01 03:15:35;;;;;;;22.52;6.95;;;;;;;;;;5003446;28;20492;-47
2023/12/01 03:18:00;;;;;;;21.70;7.28;;;;;;;;;;4970590;28;20023;-46
2023/12/01 03:20:27;;;;;;;18.63;6.53;;;;;;;;;;4995647;28;20045;-45
2023/12/01 03:22:53;;;;;;;12.32;8.60;;;;;;;;;;4984903;28;20053;-45
2023/12/01 03:25:19;;;;;;;14.75;5.70;;;;;;;;;;4996689;28;20042;-49
2023/12/01 03:27:46;;;;;;;12.35;6.65;;;;;;;;;;4995103;28;21296;-49
2023/12/01 03:30:14;;;;;;;17.25;8.80;;;;;;;;;;4990704;28;20073;-47
2023/12/01 03:32:48;;;;;;;19.25;9.88;;;;;;;;;;4982584;28;20388;-45
2023/12/01 03:35:18;;;;;;;20.20;11.27;;;;;;;;;;4987581;28;20046;-43
2023/12/01 03:37:44;;;;;;;25.77;9.65;;;;;;;;;;4988723;28;20034;-47
2023/12/01 03:40:13;;;;;;;21.25;10.38;;;;;;;;;;4992699;28;20100;-46
2023/12/01 03:42:45;;;;;;;20.70;10.13;;;;;;;;;;4996513;28;20046;-47
2023/12/01 03:45:12;;;;;;;23.50;11.23;;;;;;;;;;4988500;28;20153;-47
2023/12/01 03:47:41;;;;;;;25.05;10.52;;;;;;;;;;4994287;28;20034;-45
2023/12/01 03:50:11;;;;;;;24.65;10.98;;;;;;;;;;4984932;28;20073;-48
2023/12/01 03:52:44;;;;;;;14.20;8.90;;;;;;;;;;5006352;28;20029;-47
2023/12/01 03:55:10;;;;;;;17.92;8.90;;;;;;;;;;5013485;28;20095;-48
2023/12/01 03:57:40;;;;;;;16.42;9.25;;;;;;;;;;4994804;28;20053;-46
2023/12/01 04:00:08;;;;;;;11.23;8.00;;;;;;;;;;5003213;28;20034;-51
2023/12/01 04:02:38;;;;;;;15.73;8.32;;;;;;;;;;5009283;28;20026;-47
2023/12/01 04:05:04;;;;;;;16.40;10.45;;;;;;;;;;5007318;28;20036;-45
2023/12/01 04:07:29;;;;;;;10.75;7.93;;;;;;;;;;5005078;28;20120;-45
2023/12/01 04:09:55;;;;;;;16.30;8.05;;;;;;;;;;5013061;28;20116;-45
2023/12/01 04:12:20;;;;;;;12.68;8.68;;;;;;;;;;5010239;28;20030;-45
2023/12/01 04:14:45;;;;;;;13.10;7.38;;;;;;;;;;4999128;28;20053;-47
2023/12/01 04:17:13;;;;;;;15.20;9.77;;;;;;;;;;4994623;28;20503;-44
2023/12/01 04:19:38;;;;;;;12.60;8.30;;;;;;;;;;4989157;28;20030;-45
2023/12/01 04:22:05;;;;;;;16.52;9.48;;;;;;;;;;4989875;28;20032;-48
2023/12/01 04:24:34;;;;;;;12.57;8.40;;;;;;;;;;4992496;28;20026;-46
2023/12/01 04:27:04;;;;;;;13.60;7.97;;;;;;;;;;5009015;28;20090;-46
2023/12/01 04:29:30;;;;;;;15.75;9.48;;;;;;;;;;5009134;28;20058;-44
2023/12/01 04:31:56;;;;;;;13.18;10.05;;;;;;;;;;5007633;28;20408;-43
2023/12/01 04:34:22;;;;;;;13.55;7.20;;;;;;;;;;5007550;28;20027;-45
2023/12/01 04:36:50;;;;;;;12.60;8.43;;;;;;;;;;4991024;28;20137;-44
2023/12/01 04:39:15;;;;;;;11.18;6.63;;;;;;;;;;4996212;28;20054;-45
2023/12/01 04:41:41;;;;;;;11.68;8.00;;;;;;;;;;4994554;28;20536;-44
2023/12/01 04:44:06;;;;;;;14.25;7.78;;;;;;;;;;4972790;28;20034;-48
2023/12/01 04:46:32;;;;;;;12.50;7.65;;;;;;;;;;4992272;28;20501;-44
2023/12/01 04:48:57;;;;;;;12.50;6.97;;;;;;;;;;4993252;28;20058;-47
2023/12/01 04:51:23;;;;;;;9.77;7.05;;;;;;;;;;4992018;28;20055;-45
2023/12/01 04:53:48;;;;;;;10.43;7.18;;;;;;;;;;4993586;28;20027;-46
2023/12/01 04:56:14;;;;;;;13.88;7.03;;;;;;;;;;5005312;28;20073;-43
2023/12/01 04:58:39;;;;;;;10.55;8.32;;;;;;;;;;4995117;28;20014;-44
2023/12/01 05:01:05;;;;;;;10.80;7.00;;;;;;;;;;5010737;28;20038;-48
2023/12/01 05:03:30;;;;;;;10.55;8.50;;;;;;;;;;4990073;28;20031;-45
2023/12/01 05:05:58;;;;;;;13.68;8.00;;;;;;;;;;4981724;28;20038;-44
2023/12/01 05:08:27;;;;;;;11.98;6.97;;;;;;;;;;4991349;28;20485;-43
2023/12/01 05:10:54;;;;;;;13.55;8.85;;;;;;;;;;4995505;28;20515;-47
2023/12/01 05:13:20;;;;;;;10.80;7.78;;;;;;;;;;5009575;28;20036;-45
2023/12/01 05:15:46;;;;;;;16.23;9.55;;;;;;;;;;4995320;28;20121;-45
2023/12/01 05:18:11;;;;;;;14.38;8.55;;;;;;;;;;5012922;28;20109;-45
2023/12/01 05:20:37;;;;;;;13.30;6.78;;;;;;;;;;5008754;28;20061;-49
2023/12/01 05:23:10;;;;;;;17.10;8.43;;;;;;;;;;5008973;28;20037;-44
2023/12/01 05:25:41;;;;;;;13.32;8.10;;;;;;;;;;4999679;28;20072;-45
2023/12/01 05:28:08;;;;;;;12.18;8.27;;;;;;;;;;5007433;28;20056;-46
2023/12/01 05:30:39;;;;;;;13.80;9.02;;;;;;;;;;4998119;28;20040;-45
2023/12/01 05:33:04;;;;;;;14.50;10.70;;;;;;;;;;5011913;28;20030;-45
2023/12/01 05:35:30;;;;;;;15.30;12.27;;;;;;;;;;5008732;28;20493;-46
2023/12/01 05:37:56;;;;;;;16.13;9.68;;;;;;;;;;5009507;28;20026;-48
2023/12/01 05:40:26;;;;;;;18.95;10.27;;;;;;;;;;5007820;28;20046;-46
2023/12/01 05:42:53;;;;;;;16.58;10.07;;;;;;;;;;5010146;28;20026;-44
2023/12/01 05:45:21;;;;;;;17.58;9.45;;;;;;;;;;5014882;28;20064;-46
2023/12/01 05:47:50;;;;;;;14.40;9.70;;;;;;;;;;5006646;28;20394;-45
2023/12/01 05:50:27;;;;;;;14.63;8.75;;;;;;;;;;5006827;28;20042;-48
2023/12/01 05:52:54;;;;;;;19.65;10.02;;;;;;;;;;5001949;28;20030;-46
2023/12/01 05:55:22;;;;;;;18.45;12.75;;;;;;;;;;5010274;28;20064;-48
2023/12/01 05:57:49;;;;;;;16.13;10.88;;;;;;;;;;5005276;28;20517;-50
2023/12/01 06:00:17;;;;;;;19.10;10.82;;;;;;;;;;5010654;28;20044;-48
2023/12/01 06:02:44;;;;;;;18.17;10.55;;;;;;;;;;5012027;28;20057;-48
2023/12/01 06:05:11;;;;;;;14.32;9.32;;;;;;;;;;5008142;28;20096;-47
2023/12/01 06:07:37;;;;;;;16.95;10.48;;;;;;;;;;5015424;28;20052;-45
2023/12/01 06:10:05;;;;;;;16.90;11.60;;;;;;;;;;5003897;28;20113;-43
2023/12/01 06:12:32;;;;;;;16.25;10.20;;;;;;;;;;5004719;28;20109;-45
2023/12/01 06:14:58;;;;;;;19.13;10.35;;;;;;;;;;5010237;28;20042;-45
2023/12/01 06:17:23;;;;;;;15.75;10.65;;;;;;;;;;5013431;28;20030;-49
2023/12/01 06:19:48;;;;;;;16.58;10.25;;;;;;;;;;5012398;28;20028;-48
2023/12/01 06:22:14;;;;;;;20.05;11.52;;;;;;;;;;5010551;28;20026;-49
2023/12/01 06:24:39;;;;;;;16.75;10.25;;;;;;;;;;5012136;28;20105;-46
2023/12/01 06:27:04;;;;;;;19.08;10.45;;;;;;;;;;5008458;28;20034;-45
2023/12/01 06:29:30;;;;;;;20.10;13.25;;;;;;;;;;5015068;28;20070;-44
2023/12/01 06:31:56;;;;;;;18.90;13.60;;;;;;;;;;5008336;28;20066;-45
2023/12/01 06:34:22;;;;;;;23.35;11.93;;;;;;;;;;5011773;28;20036;-46
2023/12/01 06:36:47;;;;;;;20.55;14.18;;;;;;;;;;5007831;28;20130;-47
2023/12/01 06:39:13;;;;;;;21.95;11.90;;;;;;;;;;5015400;28;20034;-49
2023/12/01 06:41:38;;;;;;;23.52;12.43;;;;;;;;;;5010191;28;20060;-43
2023/12/01 06:44:05;;;;;;;21.92;11.73;;;;;;;;;;5008176;28;20053;-47
2023/12/01 06:46:31;;;;;;;25.40;12.27;;;;;;;;;;5011708;28;20046;-45
2023/12/01 06:48:56;;;;;;;25.95;14.15;;;;;;;;;;5013932;28;20116;-49
2023/12/01 06:51:22;;;;;;;21.15;13.20;;;;;;;;;;5001201;28;20053;-47
2023/12/01 06:53:47;;;;;;;28.15;12.85;;;;;;;;;;5012496;28;20033;-46
2023/12/01 06:56:13;;;;;;;25.38;14.10;;;;;;;;;;5016661;28;20507;-43
2023/12/01 06:58:39;;;;;;;23.33;12.20;;;;;;;;;;5009522;28;20034;-44
2023/12/01 07:01:05;;;;;;;30.30;13.45;;;;;;;;;;5014350;28;20476;-45
2023/12/01 07:03:30;;;;;;;29.98;13.60;;;;;;;;;;5013739;28;20029;-43
2023/12/01 07:05:55;;;;;;;29.60;12.20;;;;;;;;;;5000931;28;20053;-44
2023/12/01 07:08:21;;;;;;;29.10;15.43;;;;;;;;;;5016701;28;20030;-46
2023/12/01 07:10:46;;;;;;;30.52;14.13;;;;;;;;;;5009796;28;20038;-47
2023/12/01 07:13:12;;;;;;;23.67;12.45;;;;;;;;;;5010777;28;20045;-47
2023/12/01 07:15:37;;;;;;;32.35;15.20;;;;;;;;;;5003309;28;20114;-47
2023/12/01 07:18:04;;;;;;;34.10;15.48;;;;;;;;;;5011082;28;20033;-46
2023/12/01 07:20:31;;;;;;;33.78;14.65;;;;;;;;;;5010998;28;20057;-48
2023/12/01 07:22:56;;;;;;;24.35;13.40;;;;;;;;;;5012008;28;20744;-47
2023/12/01 07:25:22;;;;;;;29.27;15.10;;;;;;;;;;5001320;28;20044;-45
2023/12/01 07:28:04;;;;;;;27.98;13.65;;;;;;;;;;5003428;28;22317;-49
2023/12/01 07:30:29;;;;;;;;;;;;;;;;;;4999310;28;20084;-45
2023/12/01 07:32:55;;;;;;;25.80;13.75;;;;;;;;;;4997877;28;19965;-46
2023/12/01 07:35:21;;;;;;;34.28;15.65;;;;;;;;;;5006567;28;20129;-46
2023/12/01 07:37:48;;;;;;;29.02;14.70;;;;;;;;;;5014259;28;20128;-45
2023/12/01 07:40:19;;;;;;;24.95;13.35;;;;;;;;;;4996035;28;20054;-48
2023/12/01 07:42:45;;;;;;;26.35;12.05;;;;;;;;;;5002358;28;20042;-42
2023/12/01 07:45:15;;;;;;;30.60;17.15;;;;;;;;;;4983531;28;20112;-44
2023/12/01 07:47:40;;;;;;;23.65;12.95;;;;;;;;;;4990413;28;20042;-45
2023/12/01 07:50:07;;;;;;;28.05;15.05;;;;;;;;;;4992454;28;20050;-45
2023/12/01 07:52:32;;;;;;;27.83;14.88;;;;;;;;;;4990731;28;20026;-48
2023/12/01 07:54:58;;;;;;;22.02;14.32;;;;;;;;;;4997608;28;20121;-46
2023/12/01 07:57:24;;;;;;;23.40;13.13;;;;;;;;;;5016373;28;20096;-45
2023/12/01 07:59:49;;;;;;;25.42;13.18;;;;;;;;;;5003635;28;20038;-49
2023/12/01 08:02:15;;;;;;;24.67;12.27;;;;;;;;;;5011382;28;20030;-48
2023/12/01 08:04:40;;;;;;;23.70;15.63;;;;;;;;;;4999531;28;20079;-47
2023/12/01 08:07:07;;;;;;;22.17;12.93;;;;;;;;;;5014451;28;20034;-44
2023/12/01 08:09:33;;;;;;;24.88;12.68;;;;;;;;;;5015334;28;20038;-46
2023/12/01 08:11:59;;;;;;;23.00;12.00;;;;;;;;;;5005817;28;20041;-46
2023/12/01 08:14:25;;;;;;;22.77;13.07;;;;;;;;;;5001650;28;20079;-45
2023/12/01 08:16:51;;;;;;;26.63;13.45;;;;;;;;;;5007158;28;20046;-48
2023/12/01 08:19:16;;;;;;;24.98;12.70;;;;;;;;;;5011069;28;20029;-46
2023/12/01 08:21:43;;;;;;;23.20;12.30;;;;;;;;;;4999645;28;20508;-45
2023/12/01 08:24:10;;;;;;;24.42;12.95;;;;;;;;;;5012989;28;20026;-45
2023/12/01 08:26:35;;;;;;;23.10;10.73;;;;;;;;;;5005871;28;20032;-45
2023/12/01 08:29:00;;;;;;;21.73;12.27;;;;;;;;;;5003521;28;20083;-46
2023/12/01 08:31:26;;;;;;;23.58;11.43;;;;;;;;;;5008199;28;20049;-49
2023/12/01 08:33:52;;;;;;;20.15;12.38;;;;;;;;;;5003730;28;20026;-43
2023/12/01 08:36:18;;;;;;;19.33;13.25;;;;;;;;;;5008092;28;20042;-47
2023/12/01 08:38:43;;;;;;;25.65;12.82;;;;;;;;;;5008290;28;20026;-44
2023/12/01 08:41:09;;;;;;;24.00;12.40;;;;;;;;;;5006597;28;20046;-44
2023/12/01 08:43:34;;;;;;;20.92;13.25;;;;;;;;;;5010609;28;20076;-50
2023/12/01 08:45:59;;;;;;;23.38;13.50;;;;;;;;;;5003417;28;20062;-47
2023/12/01 08:48:25;;;;;;;25.42;12.88;;;;;;;;;;5006692;28;20030;-46
2023/12/01 08:50:50;;;;;;;19.88;13.13;;;;;;;;;;4997697;28;20042;-49
2023/12/01 08:53:16;;;;;;;18.48;11.50;;;;;;;;;;4997762;28;20026;-46
2023/12/01 08:55:41;;;;;;;17.75;10.93;;;;;;;;;;5002211;28;20125;-47
2023/12/01 08:58:06;;;;;;;20.65;11.95;;;;;;;;;;5013715;28;20049;-46
2023/12/01 09:00:32;;;;;;;19.13;12.85;;;;;;;;;;5009115;28;20042;-47
2023/12/01 09:02:57;;;;;;;19.27;10.90;;;;;;;;;;5010055;28;20021;-44
2023/12/01 09:05:24;;;;;;;19.85;11.32;;;;;;;;;;5014596;28;20038;-49
2023/12/01 09:07:50;;;;;;;21.15;12.05;;;;;;;;;;5013284;28;20044;-45
2023/12/01 09:10:15;;;;;;;18.15;12.00;;;;;;;;;;4999208;28;20580;-43
2023/12/01 09:12:42;;;;;;;22.30;11.20;;;;;;;;;;5012350;28;20026;-44
2023/12/01 09:15:09;;;;;;;25.35;12.00;;;;;;;;;;5010316;28;20066;-47
2023/12/01 09:17:35;;;;;;;16.35;10.43;;;;;;;;;;5006350;28;20022;-45
2023/12/01 09:20:00;;;;;;;22.50;11.98;;;;;;;;;;5004919;28;20065;-47
2023/12/01 09:22:26;;;;;;;23.20;13.00;;;;;;;;;;5006499;28;20028;-46
2023/12/01 09:24:51;;;;;;;22.10;13.60;;;;;;;;;;5008598;28;20021;-44
2023/12/01 09:27:17;;;;;;;20.35;11.07;;;;;;;;;;5015752;28;20049;-44
2023/12/01 09:29:42;;;;;;;20.70;12.65;;;;;;;;;;5009691;28;20029;-43
2023/12/01 09:32:08;;;;;;;19.92;11.35;;;;;;;;;;5006695;28;20098;-44
2023/12/01 09:34:33;;;;;;;17.70;11.98;;;;;;;;;;5017110;28;20029;-46
2023/12/01 09:36:59;;;;;;;23.92;12.05;;;;;;;;;;5015902;28;20037;-44
2023/12/01 09:39:24;;;;;;;22.67;11.35;;;;;;;;;;5017018;28;20084;-47
2023/12/01 09:41:51;;;;;;;19.38;11.63;;;;;;;;;;5001739;28;20049;-44
2023/12/01 09:44:16;;;;;;;24.35;15.07;;;;;;;;;;5002781;28;20034;-42
2023/12/01 09:46:43;;;;;;;21.38;14.02;;;;;;;;;;4989118;28;20403;-43
2023/12/01 09:49:08;;;;;;;20.08;11.73;;;;;;;;;;5009212;28;20072;-46
2023/12/01 09:51:36;;;;;;;18.77;10.98;;;;;;;;;;5001702;28;20038;-49
2023/12/01 09:54:03;;;;;;;22.55;14.52;;;;;;;;;;5005933;28;20064;-46
2023/12/01 09:56:29;;;;;;;18.48;11.13;;;;;;;;;;5014776;28;20042;-47
2023/12/01 09:58:59;;;;;;;18.80;12.30;;;;;;;;;;5005674;28;20121;-46
2023/12/01 10:01:24;;;;;;;22.65;14.55;;;;;;;;;;5009258;28;20038;-46
2023/12/01 10:03:50;;;;;;;24.08;14.05;;;;;;;;;;5003377;28;20026;-47
2023/12/01 10:06:16;;;;;;;30.67;15.77;;;;;;;;;;5000301;28;20057;-47
2023/12/01 10:08:42;;;;;;;23.80;15.82;;;;;;;;;;5011464;28;20026;-46
2023/12/01 10:11:24;;;;;;;23.65;13.90;;;;;;;;;;5005709;28;20040;-49
2023/12/01 10:13:51;;;;;;;22.00;16.45;;;;;;;;;;5013360;28;20059;-47
2023/12/01 10:16:20;;;;;;;20.95;13.63;;;;;;;;;;5010979;28;20052;-47
2023/12/01 10:18:57;;;;;;;21.33;12.82;;;;;;;;;;5015020;28;20046;-44
2023/12/01 10:21:40;;;;;;;17.98;12.15;;;;;;;;;;5010159;28;20030;-47
2023/12/01 10:24:35;;;;;;;20.88;13.82;;;;;;;;;;5004132;28;20409;-46
2023/12/01 10:27:05;;;;;;;23.98;14.13;;;;;;;;;;5012627;28;20056;-46
2023/12/01 10:29:33;;;;;;;21.90;13.38;;;;;;;;;;5012910;28;20060;-47
2023/12/01 10:32:04;;;;;;;21.67;15.95;;;;;;;;;;5004911;28;20062;-42
2023/12/01 10:34:30;;;;;;;24.38;14.77;;;;;;;;;;5014212;28;20083;-45
2023/12/01 10:36:56;;;;;;;22.02;14.30;;;;;;;;;;5008580;28;20050;-49
2023/12/01 10:39:24;;;;;;;25.52;16.40;;;;;;;;;;5013393;28;20454;-45
2023/12/01 10:41:50;;;;;;;24.90;14.18;;;;;;;;;;5009874;28;20045;-48
2023/12/01 10:44:16;;;;;;;22.45;13.63;;;;;;;;;;5009811;28;20133;-47
2023/12/01 10:46:45;;;;;;;21.13;12.73;;;;;;;;;;5003874;28;20046;-48
2023/12/01 10:49:13;;;;;;;21.10;12.55;;;;;;;;;;5009165;28;20469;-46
2023/12/01 10:51:40;;;;;;;21.88;12.98;;;;;;;;;;5006805;28;20030;-45
2023/12/01 10:54:09;;;;;;;21.98;12.10;;;;;;;;;;5013067;28;20028;-47
2023/12/01 10:56:56;;;;;;;19.45;10.60;;;;;;;;;;5014648;28;20041;-43
2023/12/01 10:59:25;;;;;;;;;;;;;;;;;;5000776;28;20033;-48
2023/12/01 11:01:53;;;;;;;17.73;9.55;;;;;;;;;;5005840;28;19923;-43
2023/12/01 11:04:26;;;;;;;25.48;12.45;;;;;;;;;;5010547;28;20081;-47
2023/12/01 11:07:24;;;;;;;24.92;16.08;;;;;;;;;;5005536;28;20469;-47
2023/12/01 11:10:19;;;;;;;22.25;14.00;;;;;;;;;;5008799;28;20044;-46
2023/12/01 11:13:26;;;;;;;22.83;14.93;;;;;;;;;;5010365;28;20022;-48
2023/12/01 11:15:53;;;;;;;26.20;16.30;;;;;;;;;;5013902;28;20050;-43
2023/12/01 11:18:19;;;;;;;20.48;12.52;;;;;;;;;;5013590;28;20057;-44
2023/12/01 11:20:46;;;;;;;28.33;16.55;;;;;;;;;;5014879;28;20072;-43
2023/12/01 11:23:12;;;;;;;20.55;14.10;;;;;;;;;;5008166;28;20099;-43
2023/12/01 11:25:50;;;;;;;20.60;14.30;;;;;;;;;;5008135;28;20069;-46
2023/12/01 11:31:08;;;;;;;20.77;11.90;;;;;;;;;;5013753;28;20041;-45
2023/12/01 11:33:50;;;;;;;19.65;12.95;;;;;;;;;;5009992;28;20026;-44
2023/12/01 11:36:33;;;;;;;16.13;10.80;;;;;;;;;;4979625;28;20098;-47
2023/12/01 11:39:11;;;;;;;19.67;11.95;;;;;;;;;;5013615;28;21236;-45
2023/12/01 11:41:47;;;;;;;15.95;10.10;;;;;;;;;;5006721;28;20042;-43
2023/12/01 11:44:24;;;;;;;26.13;13.52;;;;;;;;;;5006976;28;20040;-46
2023/12/01 11:46:57;;;;;;;17.48;12.10;;;;;;;;;;5008980;28;20041;-48
2023/12/01 11:49:27;;;;;;;22.30;11.25;;;;;;;;;;5001270;28;20045;-43
2023/12/01 11:51:53;;;;;;;24.75;12.50;;;;;;;;;;4997878;28;20046;-45
2023/12/01 11:54:19;;;;;;;21.55;11.13;;;;;;;;;;5004965;28;20038;-44
2023/12/01 11:56:50;;;;;;;19.08;13.77;;;;;;;;;;5010774;28;20564;-47
2023/12/01 11:59:16;;;;;;;18.13;11.57;;;;;;;;;;5009421;28;20033;-45
2023/12/01 12:01:42;;;;;;;22.65;13.02;;;;;;;;;;5004787;28;20030;-45
2023/12/01 12:04:09;;;;;;;21.05;12.77;;;;;;;;;;5007724;28;20057;-44
2023/12/01 12:06:35;;;;;;;19.10;11.30;;;;;;;;;;5006207;28;20041;-46
2023/12/01 12:09:06;;;;;;;21.23;13.52;;;;;;;;;;5006357;28;20029;-48
2023/12/01 12:11:34;;;;;;;19.92;12.65;;;;;;;;;;5013980;28;20128;-46
2023/12/01 12:14:07;;;;;;;17.58;12.57;;;;;;;;;;5014963;28;20033;-50
2023/12/01 12:16:34;;;;;;;17.55;11.82;;;;;;;;;;5008613;28;20034;-43
2023/12/01 12:19:00;;;;;;;22.85;14.02;;;;;;;;;;5008425;28;20033;-45
2023/12/01 12:21:29;;;;;;;23.45;15.07;;;;;;;;;;5005098;28;20125;-49
2023/12/01 12:23:55;;;;;;;23.10;18.83;;;;;;;;;;5012235;28;20032;-45
2023/12/01 12:26:28;;;;;;;21.92;13.20;;;;;;;;;;5006899;28;20057;-44
2023/12/01 12:28:55;;;;;;;21.73;14.63;;;;;;;;;;5012040;28;20033;-48
2023/12/01 12:31:25;;;;;;;18.67;12.05;;;;;;;;;;5009547;28;20408;-45
2023/12/01 12:33:58;;;;;;;24.15;14.77;;;;;;;;;;5002282;28;20535;-46
2023/12/01 12:36:29;;;;;;;21.45;13.30;;;;;;;;;;5014257;28;20034;-45
2023/12/01 12:39:03;;;;;;;21.25;16.52;;;;;;;;;;4994376;28;20480;-47
2023/12/01 12:41:28;;;;;;;24.00;13.63;;;;;;;;;;5015646;28;20052;-44
2023/12/01 12:44:01;;;;;;;18.67;13.65;;;;;;;;;;5016224;28;20610;-47
2023/12/01 12:46:29;;;;;;;15.43;12.23;;;;;;;;;;5011338;28;20692;-47
2023/12/01 12:48:57;;;;;;;18.48;10.73;;;;;;;;;;5006137;28;20075;-48
2023/12/01 12:51:24;;;;;;;17.30;10.93;;;;;;;;;;5007866;28;20096;-48
2023/12/01 12:53:51;;;;;;;23.55;14.52;;;;;;;;;;5002910;28;20116;-45
2023/12/01 12:56:17;;;;;;;25.70;16.55;;;;;;;;;;4997903;28;20054;-44
2023/12/01 12:58:44;;;;;;;20.13;14.45;;;;;;;;;;5002687;28;20086;-46
2023/12/01 13:01:11;;;;;;;24.67;15.40;;;;;;;;;;5001639;28;20544;-43
2023/12/01 13:03:40;;;;;;;24.38;14.43;;;;;;;;;;5013862;28;20065;-43
2023/12/01 13:06:07;;;;;;;22.20;15.15;;;;;;;;;;5013073;28;20045;-48
2023/12/01 13:08:36;;;;;;;22.45;17.50;;;;;;;;;;5012439;28;20100;-44
2023/12/01 13:11:04;;;;;;;26.60;18.48;;;;;;;;;;5001563;28;20042;-48
2023/12/01 13:13:30;;;;;;;26.75;21.50;;;;;;;;;;5017665;28;20030;-45
2023/12/01 13:15:56;;;;;;;54.63;45.13;;;;;;;;;;5010239;28;20454;-48
2023/12/01 13:18:24;;;;;;;40.92;30.45;;;;;;;;;;5001716;28;20066;-45
2023/12/01 13:20:49;;;;;;;30.17;23.70;;;;;;;;;;5002466;28;20044;-45
2023/12/01 13:23:15;;;;;;;26.35;21.20;;;;;;;;;;5010205;28;20108;-47
2023/12/01 13:25:44;;;;;;;25.33;18.77;;;;;;;;;;5011217;28;20049;-45
2023/12/01 13:28:09;;;;;;;;;;;;;;;;;;5010503;28;20039;-44
2023/12/01 13:30:35;;;;;;;31.08;20.42;;;;;;;;;;5001313;28;19917;-44
2023/12/01 13:33:01;;;;;;;26.63;21.20;;;;;;;;;;5011050;28;20026;-46
2023/12/01 13:35:27;;;;;;;24.42;19.17;;;;;;;;;;5011870;28;20052;-44
2023/12/01 13:37:53;;;;;;;26.83;18.55;;;;;;;;;;5018116;28;20021;-47
2023/12/01 13:40:20;;;;;;;25.48;17.85;;;;;;;;;;5016600;28;20044;-45
2023/12/01 13:42:46;;;;;;;31.88;25.35;;;;;;;;;;5005937;28;20049;-46
2023/12/01 13:45:11;;;;;;;35.70;29.60;;;;;;;;;;5004854;28;21343;-43
2023/12/01 13:47:38;;;;;;;36.22;26.60;;;;;;;;;;5017709;28;20104;-49
2023/12/01 13:50:04;;;;;;;33.80;24.92;;;;;;;;;;5013306;28;21130;-42
2023/12/01 13:52:30;;;;;;;29.38;21.98;;;;;;;;;;4988475;28;20054;-44
2023/12/01 13:54:57;;;;;;;29.67;20.42;;;;;;;;;;5009133;28;20042;-47
2023/12/01 13:57:22;;;;;;;27.27;17.42;;;;;;;;;;5013535;28;20064;-44
2023/12/01 13:59:48;;;;;;;25.73;18.05;;;;;;;;;;4990576;28;20030;-46
2023/12/01 14:02:15;;;;;;;22.73;15.13;;;;;;;;;;5009891;28;20026;-45
2023/12/01 14:04:42;;;;;;;25.27;16.40;;;;;;;;;;5010039;28;20026;-45
2023/12/01 14:07:08;;;;;;;25.13;16.20;;;;;;;;;;4986678;28;20382;-45
2023/12/01 14:09:37;;;;;;;23.67;15.05;;;;;;;;;;4995311;28;20041;-45
2023/12/01 14:12:03;;;;;;;24.05;16.50;;;;;;;;;;4994831;28;20090;-45
2023/12/01 14:14:29;;;;;;;28.73;17.92;;;;;;;;;;4990217;28;20035;-49
2023/12/01 14:16:55;;;;;;;28.70;16.85;;;;;;;;;;4991150;28;20106;-45
2023/12/01 14:19:20;;;;;;;32.78;15.75;;;;;;;;;;4993891;28;20050;-49
2023/12/01 14:21:46;;;;;;;31.60;18.95;;;;;;;;;;4986223;28;20038;-46
2023/12/01 14:24:11;;;;;;;27.55;17.65;;;;;;;;;;4990186;28;20034;-46
2023/12/01 14:26:37;;;;;;;36.47;25.30;;;;;;;;;;4994751;28;20431;-43